sensor_id;sensor_type;location;lat;lon;timestamp;pressure;altitude;pressure_sealevel;temperature;humidity
31483;BME280;18103;52.246;8.052;2023-02-18T00:00:15;100909.66;;;7.76;80.81
31483;BME280;18103;52.246;8.052;2023-02-18T00:02:41;100898.03;;;7.80;80.43
31483;BME280;18103;52.246;8.052;2023-02-18T00:05:07;100902.69;;;7.75;81.06
31483;BME280;18103;52.246;8.052;2023-02-18T00:07:34;100895.91;;;7.70;81.29
31483;BME280;18103;52.246;8.052;2023-02-18T00:10:00;100898.44;;;7.72;81.87
31483;BME280;18103;52.246;8.052;2023-02-18T00:12:25;100890.75;;;7.69;81.66
31483;BME280;18103;52.246;8.052;2023-02-18T00:14:50;100887.59;;;7.78;81.69
31483;BME280;18103;52.246;8.052;2023-02-18T00:17:16;100879.03;;;7.75;81.79
31483;BME280;18103;52.246;8.052;2023-02-18T00:19:41;100881.22;;;7.82;81.94
31483;BME280;18103;52.246;8.052;2023-02-18T00:22:06;100875.03;;;7.83;81.71
31483;BME280;18103;52.246;8.052;2023-02-18T00:24:32;100881.22;;;7.82;82.44
31483;BME280;18103;52.246;8.052;2023-02-18T00:26:57;100878.78;;;7.79;82.34
31483;BME280;18103;52.246;8.052;2023-02-18T00:29:23;100879.91;;;7.75;82.69
31483;BME280;18103;52.246;8.052;2023-02-18T00:31:48;100877.53;;;7.70;83.31
31483;BME280;18103;52.246;8.052;2023-02-18T00:34:13;100887.28;;;7.68;84.16
31483;BME280;18103;52.246;8.052;2023-02-18T00:36:39;100887.28;;;7.68;84.37
31483;BME280;18103;52.246;8.052;2023-02-18T00:39:07;100884.47;;;7.71;84.96
31483;BME280;18103;52.246;8.052;2023-02-18T00:41:34;100876.91;;;7.81;84.74
31483;BME280;18103;52.246;8.052;2023-02-18T00:44:00;100881.97;;;7.84;85.04
31483;BME280;18103;52.246;8.052;2023-02-18T00:46:26;100882.56;;;7.90;85.54
31483;BME280;18103;52.246;8.052;2023-02-18T00:48:53;100874.59;;;7.91;86.41
31483;BME280;18103;52.246;8.052;2023-02-18T00:51:18;100870.84;;;7.95;86.31
31483;BME280;18103;52.246;8.052;2023-02-18T00:53:44;100875.06;;;7.98;86.34
31483;BME280;18103;52.246;8.052;2023-02-18T00:56:09;100872.34;;;7.99;87.60
31483;BME280;18103;52.246;8.052;2023-02-18T00:58:35;100880.53;;;8.09;87.49
31483;BME280;18103;52.246;8.052;2023-02-18T01:01:01;100872.56;;;8.11;87.38
31483;BME280;18103;52.246;8.052;2023-02-18T01:03:27;100876.69;;;8.15;87.31
31483;BME280;18103;52.246;8.052;2023-02-18T01:05:53;100879.31;;;8.15;87.78
31483;BME280;18103;52.246;8.052;2023-02-18T01:08:20;100874.38;;;8.25;87.52
31483;BME280;18103;52.246;8.052;2023-02-18T01:10:48;100870.03;;;8.23;87.92
31483;BME280;18103;52.246;8.052;2023-02-18T01:13:14;100867.50;;;8.22;87.76
31483;BME280;18103;52.246;8.052;2023-02-18T01:15:41;100857.16;;;8.33;87.50
31483;BME280;18103;52.246;8.052;2023-02-18T01:18:07;100867.06;;;8.30;87.71
31483;BME280;18103;52.246;8.052;2023-02-18T01:20:37;100868.56;;;8.34;88.09
31483;BME280;18103;52.246;8.052;2023-02-18T01:23:03;100862.44;;;8.33;88.13
31483;BME280;18103;52.246;8.052;2023-02-18T01:25:29;100859.53;;;8.38;87.91
31483;BME280;18103;52.246;8.052;2023-02-18T01:27:55;100867.34;;;8.39;87.68
31483;BME280;18103;52.246;8.052;2023-02-18T01:30:20;100859.16;;;8.44;87.80
31483;BME280;18103;52.246;8.052;2023-02-18T01:32:46;100858.63;;;8.53;87.77
31483;BME280;18103;52.246;8.052;2023-02-18T01:35:14;100842.91;;;8.52;88.02
31483;BME280;18103;52.246;8.052;2023-02-18T01:37:40;100828.63;;;8.56;87.90
31483;BME280;18103;52.246;8.052;2023-02-18T01:40:07;100820.75;;;8.56;87.36
31483;BME280;18103;52.246;8.052;2023-02-18T01:42:33;100827.41;;;8.62;87.74
31483;BME280;18103;52.246;8.052;2023-02-18T01:48:04;100818.66;;;8.61;87.84
31483;BME280;18103;52.246;8.052;2023-02-18T01:50:34;100823.38;;;8.56;88.15
31483;BME280;18103;52.246;8.052;2023-02-18T01:53:00;100824.03;;;8.60;87.97
31483;BME280;18103;52.246;8.052;2023-02-18T01:55:26;100823.19;;;8.59;88.44
31483;BME280;18103;52.246;8.052;2023-02-18T01:57:52;100809.28;;;8.57;88.60
31483;BME280;18103;52.246;8.052;2023-02-18T02:00:18;100793.03;;;8.65;88.50
31483;BME280;18103;52.246;8.052;2023-02-18T02:02:49;100796.19;;;8.70;88.02
31483;BME280;18103;52.246;8.052;2023-02-18T02:05:16;100792.63;;;8.71;88.03
31483;BME280;18103;52.246;8.052;2023-02-18T02:07:42;100796.84;;;8.73;88.05
31483;BME280;18103;52.246;8.052;2023-02-18T02:10:11;100795.34;;;8.69;88.53
31483;BME280;18103;52.246;8.052;2023-02-18T02:27:10;100757.06;;;8.78;88.61
31483;BME280;18103;52.246;8.052;2023-02-18T02:38:33;100756.38;;;8.89;88.85
31483;BME280;18103;52.246;8.052;2023-02-18T02:46:12;100742.91;;;8.94;88.96
31483;BME280;18103;52.246;8.052;2023-02-18T02:51:32;100748.53;;;9.02;89.01
31483;BME280;18103;52.246;8.052;2023-02-18T02:54:22;100744.94;;;9.03;88.92
31483;BME280;18103;52.246;8.052;2023-02-18T02:56:48;100743.69;;;9.08;88.93
31483;BME280;18103;52.246;8.052;2023-02-18T02:59:19;100739.28;;;9.09;89.21
31483;BME280;18103;52.246;8.052;2023-02-18T03:02:21;100737.25;;;9.00;89.46
31483;BME280;18103;52.246;8.052;2023-02-18T03:10:55;100703.88;;;9.13;89.19
31483;BME280;18103;52.246;8.052;2023-02-18T03:19:22;100690.50;;;9.16;89.34
31483;BME280;18103;52.246;8.052;2023-02-18T03:21:51;100680.50;;;9.08;89.87
31483;BME280;18103;52.246;8.052;2023-02-18T03:24:26;100681.56;;;9.19;89.55
31483;BME280;18103;52.246;8.052;2023-02-18T03:30:11;100673.47;;;9.22;89.24
31483;BME280;18103;52.246;8.052;2023-02-18T03:32:39;100665.75;;;9.19;89.81
31483;BME280;18103;52.246;8.052;2023-02-18T03:35:08;100668.09;;;9.23;89.62
31483;BME280;18103;52.246;8.052;2023-02-18T03:37:38;100666.63;;;9.19;90.11
31483;BME280;18103;52.246;8.052;2023-02-18T03:40:06;100665.47;;;9.23;90.01
31483;BME280;18103;52.246;8.052;2023-02-18T03:42:33;100660.31;;;9.22;90.09
31483;BME280;18103;52.246;8.052;2023-02-18T03:44:58;100665.88;;;9.30;89.96
31483;BME280;18103;52.246;8.052;2023-02-18T03:47:24;100660.09;;;9.25;90.09
31483;BME280;18103;52.246;8.052;2023-02-18T03:49:49;100657.97;;;9.30;89.89
31483;BME280;18103;52.246;8.052;2023-02-18T03:52:15;100645.78;;;9.29;89.77
31483;BME280;18103;52.246;8.052;2023-02-18T03:54:40;100642.50;;;9.25;90.07
31483;BME280;18103;52.246;8.052;2023-02-18T03:57:06;100641.13;;;9.33;90.18
31483;BME280;18103;52.246;8.052;2023-02-18T03:59:31;100637.13;;;9.27;90.19
31483;BME280;18103;52.246;8.052;2023-02-18T04:01:57;100637.44;;;9.35;90.16
31483;BME280;18103;52.246;8.052;2023-02-18T04:04:22;100642.16;;;9.30;90.41
31483;BME280;18103;52.246;8.052;2023-02-18T04:06:47;100631.44;;;9.33;90.33
31483;BME280;18103;52.246;8.052;2023-02-18T04:09:13;100630.56;;;9.33;90.72
31483;BME280;18103;52.246;8.052;2023-02-18T04:11:39;100634.78;;;9.35;90.75
31483;BME280;18103;52.246;8.052;2023-02-18T04:14:04;100619.53;;;9.40;90.72
31483;BME280;18103;52.246;8.052;2023-02-18T04:16:30;100607.50;;;9.36;91.03
31483;BME280;18103;52.246;8.052;2023-02-18T04:18:56;100605.72;;;9.37;91.22
31483;BME280;18103;52.246;8.052;2023-02-18T04:21:21;100594.13;;;9.39;91.26
31483;BME280;18103;52.246;8.052;2023-02-18T04:23:47;100598.13;;;9.45;90.56
31483;BME280;18103;52.246;8.052;2023-02-18T04:26:12;100601.59;;;9.46;90.83
31483;BME280;18103;52.246;8.052;2023-02-18T04:28:38;100596.53;;;9.42;90.86
31483;BME280;18103;52.246;8.052;2023-02-18T04:31:03;100587.03;;;9.40;91.59
31483;BME280;18103;52.246;8.052;2023-02-18T04:33:29;100577.25;;;9.42;91.66
31483;BME280;18103;52.246;8.052;2023-02-18T04:35:54;100576.31;;;9.43;91.86
31483;BME280;18103;52.246;8.052;2023-02-18T04:38:19;100581.25;;;9.48;91.55
31483;BME280;18103;52.246;8.052;2023-02-18T04:40:45;100576.94;;;9.47;91.94
31483;BME280;18103;52.246;8.052;2023-02-18T04:43:11;100567.44;;;9.44;92.27
31483;BME280;18103;52.246;8.052;2023-02-18T04:45:36;100566.28;;;9.48;92.18
31483;BME280;18103;52.246;8.052;2023-02-18T04:48:01;100559.00;;;9.52;92.26
31483;BME280;18103;52.246;8.052;2023-02-18T04:50:27;100564.28;;;9.52;92.01
31483;BME280;18103;52.246;8.052;2023-02-18T04:52:52;100553.63;;;9.53;92.22
31483;BME280;18103;52.246;8.052;2023-02-18T04:55:18;100562.59;;;9.51;92.84
31483;BME280;18103;52.246;8.052;2023-02-18T04:57:43;100555.75;;;9.48;92.46
31483;BME280;18103;52.246;8.052;2023-02-18T05:00:10;100550.78;;;9.56;92.49
31483;BME280;18103;52.246;8.052;2023-02-18T05:02:37;100544.34;;;9.61;92.31
31483;BME280;18103;52.246;8.052;2023-02-18T05:05:02;100548.03;;;9.58;92.69
31483;BME280;18103;52.246;8.052;2023-02-18T05:07:28;100538.94;;;9.62;92.42
31483;BME280;18103;52.246;8.052;2023-02-18T05:09:53;100535.38;;;9.63;92.70
31483;BME280;18103;52.246;8.052;2023-02-18T05:12:18;100537.06;;;9.64;92.64
31483;BME280;18103;52.246;8.052;2023-02-18T05:14:44;100537.78;;;9.66;92.94
31483;BME280;18103;52.246;8.052;2023-02-18T05:17:09;100522.84;;;9.67;92.75
31483;BME280;18103;52.246;8.052;2023-02-18T05:19:35;100520.50;;;9.62;93.13
31483;BME280;18103;52.246;8.052;2023-02-18T05:22:00;100509.97;;;9.62;93.65
31483;BME280;18103;52.246;8.052;2023-02-18T05:24:25;100513.72;;;9.71;93.41
31483;BME280;18103;52.246;8.052;2023-02-18T05:26:51;100513.84;;;9.69;93.17
31483;BME280;18103;52.246;8.052;2023-02-18T05:29:16;100508.69;;;9.68;93.41
31483;BME280;18103;52.246;8.052;2023-02-18T05:31:41;100500.66;;;9.69;93.39
31483;BME280;18103;52.246;8.052;2023-02-18T05:34:07;100488.00;;;9.74;93.41
31483;BME280;18103;52.246;8.052;2023-02-18T05:36:32;100485.69;;;9.70;93.38
31483;BME280;18103;52.246;8.052;2023-02-18T05:38:58;100478.41;;;9.73;93.57
31483;BME280;18103;52.246;8.052;2023-02-18T05:41:23;100472.56;;;9.81;93.37
31483;BME280;18103;52.246;8.052;2023-02-18T05:43:48;100461.16;;;9.81;93.40
31483;BME280;18103;52.246;8.052;2023-02-18T05:46:33;100452.09;;;9.85;93.52
31483;BME280;18103;52.246;8.052;2023-02-18T05:48:58;100450.44;;;9.84;93.55
31483;BME280;18103;52.246;8.052;2023-02-18T05:51:24;100446.94;;;9.83;93.67
31483;BME280;18103;52.246;8.052;2023-02-18T05:53:49;100443.47;;;9.83;93.75
31483;BME280;18103;52.246;8.052;2023-02-18T05:56:14;100423.09;;;9.85;93.51
31483;BME280;18103;52.246;8.052;2023-02-18T05:58:40;100441.53;;;9.85;93.70
31483;BME280;18103;52.246;8.052;2023-02-18T06:01:05;100428.47;;;9.83;93.94
31483;BME280;18103;52.246;8.052;2023-02-18T06:03:30;100435.31;;;9.86;93.53
31483;BME280;18103;52.246;8.052;2023-02-18T06:05:56;100419.38;;;9.87;93.56
31483;BME280;18103;52.246;8.052;2023-02-18T06:08:21;100421.44;;;9.84;93.83
31483;BME280;18103;52.246;8.052;2023-02-18T06:10:47;100411.03;;;9.93;93.32
31483;BME280;18103;52.246;8.052;2023-02-18T06:13:12;100408.50;;;9.92;93.47
31483;BME280;18103;52.246;8.052;2023-02-18T06:15:38;100404.19;;;9.91;93.55
31483;BME280;18103;52.246;8.052;2023-02-18T06:18:05;100403.00;;;9.95;93.45
31483;BME280;18103;52.246;8.052;2023-02-18T06:20:30;100414.75;;;9.91;93.50
31483;BME280;18103;52.246;8.052;2023-02-18T06:22:56;100407.53;;;9.93;94.09
31483;BME280;18103;52.246;8.052;2023-02-18T06:25:21;100392.69;;;9.92;93.71
31483;BME280;18103;52.246;8.052;2023-02-18T06:27:47;100395.94;;;9.96;93.55
31483;BME280;18103;52.246;8.052;2023-02-18T06:30:13;100394.03;;;9.98;93.32
31483;BME280;18103;52.246;8.052;2023-02-18T06:32:38;100395.94;;;9.96;93.36
31483;BME280;18103;52.246;8.052;2023-02-18T06:35:04;100380.34;;;9.92;93.47
31483;BME280;18103;52.246;8.052;2023-02-18T06:37:29;100383.69;;;9.94;93.48
31483;BME280;18103;52.246;8.052;2023-02-18T06:39:55;100388.53;;;10.01;93.58
31483;BME280;18103;52.246;8.052;2023-02-18T06:42:20;100385.25;;;9.97;93.64
31483;BME280;18103;52.246;8.052;2023-02-18T06:44:45;100378.41;;;9.94;93.47
31483;BME280;18103;52.246;8.052;2023-02-18T06:47:11;100388.75;;;9.98;93.73
31483;BME280;18103;52.246;8.052;2023-02-18T06:49:36;100388.41;;;10.02;93.73
31483;BME280;18103;52.246;8.052;2023-02-18T06:52:03;100386.72;;;10.01;93.50
31483;BME280;18103;52.246;8.052;2023-02-18T06:54:29;100378.81;;;10.01;93.62
31483;BME280;18103;52.246;8.052;2023-02-18T06:56:55;100380.72;;;9.99;93.86
31483;BME280;18103;52.246;8.052;2023-02-18T06:59:20;100380.84;;;9.98;93.88
31483;BME280;18103;52.246;8.052;2023-02-18T07:01:46;100372.94;;;9.98;93.84
31483;BME280;18103;52.246;8.052;2023-02-18T07:04:11;100359.63;;;9.99;93.90
31483;BME280;18103;52.246;8.052;2023-02-18T07:06:37;100367.53;;;9.99;93.89
31483;BME280;18103;52.246;8.052;2023-02-18T07:09:02;100371.38;;;9.95;93.96
31483;BME280;18103;52.246;8.052;2023-02-18T07:11:27;100366.69;;;9.99;94.20
31483;BME280;18103;52.246;8.052;2023-02-18T07:13:53;100356.88;;;10.01;93.83
31483;BME280;18103;52.246;8.052;2023-02-18T07:16:18;100352.31;;;10.03;93.95
31483;BME280;18103;52.246;8.052;2023-02-18T07:18:45;100356.13;;;9.99;94.05
31483;BME280;18103;52.246;8.052;2023-02-18T07:21:10;100364.03;;;9.99;94.16
31483;BME280;18103;52.246;8.052;2023-02-18T07:23:35;100355.31;;;9.98;94.34
31483;BME280;18103;52.246;8.052;2023-02-18T07:26:09;100353.63;;;9.97;94.19
31483;BME280;18103;52.246;8.052;2023-02-18T07:28:34;100356.13;;;9.99;94.09
31483;BME280;18103;52.246;8.052;2023-02-18T07:31:00;100350.28;;;9.95;94.33
31483;BME280;18103;52.246;8.052;2023-02-18T07:33:25;100351.59;;;10.01;94.05
31483;BME280;18103;52.246;8.052;2023-02-18T07:35:58;100345.00;;;9.95;94.29
31483;BME280;18103;52.246;8.052;2023-02-18T07:38:24;100351.22;;;9.94;94.26
31483;BME280;18103;52.246;8.052;2023-02-18T07:40:51;100351.09;;;9.96;94.41
31483;BME280;18103;52.246;8.052;2023-02-18T07:43:17;100351.97;;;9.96;94.23
31483;BME280;18103;52.246;8.052;2023-02-18T07:45:43;100338.66;;;9.98;94.31
31483;BME280;18103;52.246;8.052;2023-02-18T07:48:08;100354.25;;;10.01;93.90
31483;BME280;18103;52.246;8.052;2023-02-18T07:50:34;100347.41;;;9.98;94.32
31483;BME280;18103;52.246;8.052;2023-02-18T07:53:02;100338.78;;;9.96;94.28
31483;BME280;18103;52.246;8.052;2023-02-18T07:55:28;100355.44;;;9.97;94.33
31483;BME280;18103;52.246;8.052;2023-02-18T07:58:34;100344.13;;;9.94;94.42
31483;BME280;18103;52.246;8.052;2023-02-18T08:01:03;100342.94;;;9.99;94.07
31483;BME280;18103;52.246;8.052;2023-02-18T08:03:30;100348.34;;;9.97;94.47
31483;BME280;18103;52.246;8.052;2023-02-18T08:05:56;100350.38;;;9.93;94.59
31483;BME280;18103;52.246;8.052;2023-02-18T08:08:24;100363.47;;;9.95;94.36
31483;BME280;18103;52.246;8.052;2023-02-18T08:10:51;100344.88;;;9.97;94.66
31483;BME280;18103;52.246;8.052;2023-02-18T08:13:17;100342.25;;;9.97;94.51
31483;BME280;18103;52.246;8.052;2023-02-18T08:15:43;100355.31;;;9.98;94.51
31483;BME280;18103;52.246;8.052;2023-02-18T08:18:14;100353.03;;;9.93;94.53
31483;BME280;18103;52.246;8.052;2023-02-18T08:20:40;100351.72;;;9.99;94.63
31483;BME280;18103;52.246;8.052;2023-02-18T08:23:06;100352.56;;;10.00;94.83
31483;BME280;18103;52.246;8.052;2023-02-18T08:25:32;100349.09;;;9.99;94.68
31483;BME280;18103;52.246;8.052;2023-02-18T08:27:58;100350.28;;;9.95;94.59
31483;BME280;18103;52.246;8.052;2023-02-18T08:30:24;100349.41;;;9.94;94.79
31483;BME280;18103;52.246;8.052;2023-02-18T08:32:49;100353.72;;;9.96;94.81
31483;BME280;18103;52.246;8.052;2023-02-18T08:35:14;100349.19;;;9.98;94.63
31483;BME280;18103;52.246;8.052;2023-02-18T08:37:40;100350.84;;;9.99;94.57
31483;BME280;18103;52.246;8.052;2023-02-18T08:40:06;100347.75;;;9.93;94.36
31483;BME280;18103;52.246;8.052;2023-02-18T08:42:31;100359.97;;;9.94;94.46
31483;BME280;18103;52.246;8.052;2023-02-18T08:44:57;100351.97;;;9.96;94.41
31483;BME280;18103;52.246;8.052;2023-02-18T08:47:22;100341.41;;;9.96;94.17
31483;BME280;18103;52.246;8.052;2023-02-18T08:49:48;100350.03;;;9.98;94.05
31483;BME280;18103;52.246;8.052;2023-02-18T08:52:13;100341.41;;;9.96;94.11
31483;BME280;18103;52.246;8.052;2023-02-18T08:54:38;100345.72;;;9.97;94.18
31483;BME280;18103;52.246;8.052;2023-02-18T08:57:04;100345.59;;;9.99;94.29
31483;BME280;18103;52.246;8.052;2023-02-18T08:59:29;100350.84;;;9.99;94.34
31483;BME280;18103;52.246;8.052;2023-02-18T09:01:55;100347.16;;;10.01;94.41
31483;BME280;18103;52.246;8.052;2023-02-18T09:04:21;100345.59;;;9.99;94.55
31483;BME280;18103;52.246;8.052;2023-02-18T09:06:47;100355.06;;;10.01;94.44
31483;BME280;18103;52.246;8.052;2023-02-18T09:09:14;100353.28;;;10.02;94.52
31483;BME280;18103;52.246;8.052;2023-02-18T09:11:39;100340.19;;;10.00;94.66
31483;BME280;18103;52.246;8.052;2023-02-18T09:14:05;100345.72;;;9.97;94.43
31483;BME280;18103;52.246;8.052;2023-02-18T09:16:30;100346.31;;;10.01;94.42
31483;BME280;18103;52.246;8.052;2023-02-18T09:18:56;100338.41;;;10.01;94.37
31483;BME280;18103;52.246;8.052;2023-02-18T09:21:23;100350.16;;;9.97;94.40
31483;BME280;18103;52.246;8.052;2023-02-18T09:23:49;100330.94;;;9.94;94.55
31483;BME280;18103;52.246;8.052;2023-02-18T09:26:17;100337.78;;;9.97;94.22
31483;BME280;18103;52.246;8.052;2023-02-18T09:28:45;100343.81;;;9.99;94.02
31483;BME280;18103;52.246;8.052;2023-02-18T09:31:15;100336.03;;;9.98;93.92
31483;BME280;18103;52.246;8.052;2023-02-18T09:33:44;100336.13;;;9.96;93.86
31483;BME280;18103;52.246;8.052;2023-02-18T09:36:11;100347.41;;;9.98;93.99
31483;BME280;18103;52.246;8.052;2023-02-18T09:38:36;100325.94;;;10.03;93.63
31483;BME280;18103;52.246;8.052;2023-02-18T09:41:04;100330.00;;;9.96;93.94
31483;BME280;18103;52.246;8.052;2023-02-18T09:43:41;100328.94;;;9.98;93.88
31483;BME280;18103;52.246;8.052;2023-02-18T09:46:44;100332.53;;;9.97;93.84
31483;BME280;18103;52.246;8.052;2023-02-18T09:49:18;100324.72;;;9.96;93.85
31483;BME280;18103;52.246;8.052;2023-02-18T09:51:44;100314.06;;;9.97;93.36
31483;BME280;18103;52.246;8.052;2023-02-18T09:54:15;100313.94;;;9.99;93.19
31483;BME280;18103;52.246;8.052;2023-02-18T09:56:42;100314.31;;;9.94;93.45
31483;BME280;18103;52.246;8.052;2023-02-18T09:59:14;100312.16;;;9.99;93.79
31483;BME280;18103;52.246;8.052;2023-02-18T10:01:41;100295.59;;;9.97;93.70
31483;BME280;18103;52.246;8.052;2023-02-18T10:04:21;100323.16;;;9.93;93.56
31483;BME280;18103;52.246;8.052;2023-02-18T10:06:49;100332.88;;;9.92;93.05
31483;BME280;18103;52.246;8.052;2023-02-18T10:09:24;100332.13;;;9.90;93.49
31483;BME280;18103;52.246;8.052;2023-02-18T10:11:59;100332.13;;;9.90;92.78
31483;BME280;18103;52.246;8.052;2023-02-18T10:14:27;100336.09;;;9.85;92.28
31483;BME280;18103;52.246;8.052;2023-02-18T10:16:54;100332.84;;;9.81;92.24
31483;BME280;18103;52.246;8.052;2023-02-18T10:19:25;100334.03;;;9.77;92.15
31483;BME280;18103;52.246;8.052;2023-02-18T10:21:52;100332.47;;;9.74;91.74
31483;BME280;18103;52.246;8.052;2023-02-18T10:24:27;100337.88;;;9.73;92.29
31483;BME280;18103;52.246;8.052;2023-02-18T10:26:55;100331.75;;;9.72;92.31
31483;BME280;18103;52.246;8.052;2023-02-18T10:29:21;100337.03;;;9.72;92.41
31483;BME280;18103;52.246;8.052;2023-02-18T10:32:03;100319.06;;;9.77;92.84
31483;BME280;18103;52.246;8.052;2023-02-18T10:34:39;100328.16;;;9.73;92.85
31483;BME280;18103;52.246;8.052;2023-02-18T10:43:02;100348.03;;;9.66;93.08
31483;BME280;18103;52.246;8.052;2023-02-18T10:48:31;100353.03;;;9.58;93.03
31483;BME280;18103;52.246;8.052;2023-02-18T10:51:13;100351.94;;;9.61;93.18
31483;BME280;18103;52.246;8.052;2023-02-18T10:53:41;100343.66;;;9.54;93.58
31483;BME280;18103;52.246;8.052;2023-02-18T10:56:32;100350.38;;;9.58;93.65
31483;BME280;18103;52.246;8.052;2023-02-18T11:02:18;100351.75;;;9.39;93.31
31483;BME280;18103;52.246;8.052;2023-02-18T11:04:45;100369.13;;;9.42;93.31
31483;BME280;18103;52.246;8.052;2023-02-18T11:07:32;100358.34;;;9.45;93.81
31483;BME280;18103;52.246;8.052;2023-02-18T11:10:01;100350.91;;;9.39;93.44
31483;BME280;18103;52.246;8.052;2023-02-18T11:17:45;100360.72;;;9.37;93.67
31483;BME280;18103;52.246;8.052;2023-02-18T11:23:13;100369.56;;;9.36;93.74
31483;BME280;18103;52.246;8.052;2023-02-18T11:25:40;100368.63;;;9.37;93.71
31483;BME280;18103;52.246;8.052;2023-02-18T11:30:46;100368.84;;;9.34;93.90
31483;BME280;18103;52.246;8.052;2023-02-18T11:33:17;100375.81;;;9.35;94.01
31483;BME280;18103;52.246;8.052;2023-02-18T11:35:55;100374.94;;;9.34;94.53
31483;BME280;18103;52.246;8.052;2023-02-18T11:38:44;100373.28;;;9.33;94.26
31483;BME280;18103;52.246;8.052;2023-02-18T11:41:21;100360.72;;;9.37;94.05
31483;BME280;18103;52.246;8.052;2023-02-18T11:43:53;100372.00;;;9.39;94.02
31483;BME280;18103;52.246;8.052;2023-02-18T11:46:19;100372.44;;;9.33;93.66
31483;BME280;18103;52.246;8.052;2023-02-18T11:48:46;100373.16;;;9.35;94.22
31483;BME280;18103;52.246;8.052;2023-02-18T11:51:32;100361.66;;;9.36;93.76
31483;BME280;18103;52.246;8.052;2023-02-18T11:54:30;100373.88;;;9.37;93.87
31483;BME280;18103;52.246;8.052;2023-02-18T11:57:09;100376.63;;;9.35;93.91
31483;BME280;18103;52.246;8.052;2023-02-18T11:59:37;100363.59;;;9.34;93.91
31483;BME280;18103;52.246;8.052;2023-02-18T12:04:45;100385.28;;;9.37;94.17
31483;BME280;18103;52.246;8.052;2023-02-18T12:09:51;100365.97;;;9.37;93.64
31483;BME280;18103;52.246;8.052;2023-02-18T12:12:25;100371.38;;;9.35;93.33
31483;BME280;18103;52.246;8.052;2023-02-18T12:14:54;100381.69;;;9.38;93.34
31483;BME280;18103;52.246;8.052;2023-02-18T12:22:41;100374.53;;;9.40;93.42
31483;BME280;18103;52.246;8.052;2023-02-18T12:28:12;100380.72;;;9.39;93.39
31483;BME280;18103;52.246;8.052;2023-02-18T12:34:01;100376.81;;;9.45;93.61
31483;BME280;18103;52.246;8.052;2023-02-18T12:39:09;100367.59;;;9.51;93.09
31483;BME280;18103;52.246;8.052;2023-02-18T12:41:42;100370.25;;;9.51;93.10
31483;BME280;18103;52.246;8.052;2023-02-18T12:47:19;100367.84;;;9.48;93.67
31483;BME280;18103;52.246;8.052;2023-02-18T12:50:02;100365.81;;;9.51;93.27
31483;BME280;18103;52.246;8.052;2023-02-18T13:16:53;100370.75;;;9.56;94.05
31483;BME280;18103;52.246;8.052;2023-02-18T13:19:37;100371.47;;;9.58;93.90
31483;BME280;18103;52.246;8.052;2023-02-18T13:22:08;100381.19;;;9.57;94.14
31483;BME280;18103;52.246;8.052;2023-02-18T13:24:39;100390.03;;;9.56;93.82
31483;BME280;18103;52.246;8.052;2023-02-18T13:30:12;100387.31;;;9.69;93.75
31483;BME280;18103;52.246;8.052;2023-02-18T13:38:01;100399.28;;;9.62;93.71
31483;BME280;18103;52.246;8.052;2023-02-18T13:40:30;100386.22;;;9.61;93.55
31483;BME280;18103;52.246;8.052;2023-02-18T13:45:43;100380.00;;;9.62;93.38
31483;BME280;18103;52.246;8.052;2023-02-18T13:48:27;100386.09;;;9.62;93.05
31483;BME280;18103;52.246;8.052;2023-02-18T13:51:01;100379.66;;;9.66;93.50
31483;BME280;18103;52.246;8.052;2023-02-18T13:53:28;100383.75;;;9.70;93.35
31483;BME280;18103;52.246;8.052;2023-02-18T13:56:09;100389.00;;;9.70;93.24
31483;BME280;18103;52.246;8.052;2023-02-18T13:58:36;100388.88;;;9.72;93.35
31483;BME280;18103;52.246;8.052;2023-02-18T14:01:12;100383.03;;;9.68;92.96
31483;BME280;18103;52.246;8.052;2023-02-18T14:06:13;100392.28;;;9.74;92.61
31483;BME280;18103;52.246;8.052;2023-02-18T14:08:40;100386.03;;;9.75;92.46
31483;BME280;18103;52.246;8.052;2023-02-18T14:13:43;100377.53;;;9.71;92.62
31483;BME280;18103;52.246;8.052;2023-02-18T14:16:11;100378.63;;;9.80;92.64
31483;BME280;18103;52.246;8.052;2023-02-18T14:28:47;100383.53;;;9.85;92.38
31483;BME280;18103;52.246;8.052;2023-02-18T14:50:15;100405.03;;;9.91;91.44
31483;BME280;18103;52.246;8.052;2023-02-18T14:52:46;100403.25;;;9.92;91.59
31483;BME280;18103;52.246;8.052;2023-02-18T14:55:25;100398.28;;;9.87;91.33
31483;BME280;18103;52.246;8.052;2023-02-18T14:57:54;100406.09;;;9.89;91.40
31483;BME280;18103;52.246;8.052;2023-02-18T15:00:26;100405.03;;;9.91;91.31
31483;BME280;18103;52.246;8.052;2023-02-18T15:02:57;100405.97;;;9.90;91.36
31483;BME280;18103;52.246;8.052;2023-02-18T15:05:26;100391.94;;;9.90;91.52
31483;BME280;18103;52.246;8.052;2023-02-18T15:08:05;100408.50;;;9.92;91.28
31483;BME280;18103;52.246;8.052;2023-02-18T15:13:26;100423.88;;;9.98;90.63
31483;BME280;18103;52.246;8.052;2023-02-18T15:15:59;100426.75;;;9.95;90.32
31483;BME280;18103;52.246;8.052;2023-02-18T15:18:41;100429.84;;;10.00;90.22
31483;BME280;18103;52.246;8.052;2023-02-18T15:21:27;100432.59;;;9.99;90.48
31483;BME280;18103;52.246;8.052;2023-02-18T15:23:53;100426.50;;;9.98;90.23
31483;BME280;18103;52.246;8.052;2023-02-18T15:26:19;100430.94;;;9.98;90.15
31483;BME280;18103;52.246;8.052;2023-02-18T15:28:58;100430.84;;;9.99;89.66
31483;BME280;18103;52.246;8.052;2023-02-18T15:31:27;100429.13;;;9.98;89.85
31483;BME280;18103;52.246;8.052;2023-02-18T15:33:53;100438.75;;;9.99;90.02
31483;BME280;18103;52.246;8.052;2023-02-18T15:36:18;100440.75;;;9.96;89.68
31483;BME280;18103;52.246;8.052;2023-02-18T15:38:44;100447.59;;;9.98;90.12
31483;BME280;18103;52.246;8.052;2023-02-18T15:41:14;100440.88;;;9.94;90.08
31483;BME280;18103;52.246;8.052;2023-02-18T15:44:00;100450.22;;;9.98;90.13
31483;BME280;18103;52.246;8.052;2023-02-18T15:46:27;100448.78;;;9.94;90.34
31483;BME280;18103;52.246;8.052;2023-02-18T15:48:54;100453.22;;;9.93;89.92
31483;BME280;18103;52.246;8.052;2023-02-18T15:51:24;100454.88;;;9.94;90.03
31483;BME280;18103;52.246;8.052;2023-02-18T15:53:54;100443.28;;;9.97;89.82